Flight Track Log - Related Links

Times and Time Zones

All times are in EDT time to prevent confusion due to time zone crossing. See the SWA1496 flight status page for this flight to view local times or setup timezone preferences in your user account.

Time Position Orientation Groundspeed Altitude Reporting Facility
EDT Latitude Longitude Course Direction KTS MPH feet Rate Location/Type
Sat 10:32:43 PM 39.8333 -104.7333 270° West 164 189 6,300  Level Denver TRACON
Sat 10:33:49 PM 39.8333 -104.8167 270° West 242 278 7,900 2,095 Climbing Denver TRACON
Sat 10:34:49 PM 39.8167 -104.9000 255° West 274 315 10,700 3,261 Climbing Denver TRACON
Sat 10:36:07 PM 39.7728 -105.0208 245° Southwest 267 307 15,400 2,676 Climbing Denver Center
Sat 10:37:08 PM 39.7425 -105.1203 248° West 302 348 16,900 1,820 Climbing Denver Center
Sat 10:38:09 PM 39.7069 -105.2394 249° West 349 402 19,100 2,262 Climbing Denver Center
Sat 10:39:10 PM 39.6700 -105.3569 248° West 352 405 21,500 1,967 Climbing Denver Center
Sat 10:40:11 PM 39.6261 -105.5000 248° West 400 460 23,100 1,721 Climbing Denver Center
Sat 10:41:12 PM 39.5894 -105.6164 248° West 408 470 25,000 1,967 Climbing Denver Center
Sat 10:42:13 PM 39.5361 -105.7861 248° West 425 489 27,100 1,672 Climbing Denver Center
Sat 10:43:14 PM 39.4942 -105.9319 250° West 434 499 28,400 1,426 Climbing Denver Center
Sat 10:44:15 PM 39.4444 -106.0867 247° West 461 531 30,000 1,918 Climbing Denver Center
Sat 10:45:16 PM 39.3939 -106.2461 248° West 458 527 32,300 2,033 Climbing Denver Center
Sat 10:46:16 PM 39.3497 -106.3892 248° West 449 517 34,100 1,835 Climbing Denver Center
Sat 10:47:17 PM 39.3050 -106.5289 248° West 442 509 36,000 1,820 Climbing Denver Center
Sat 10:48:18 PM 39.2536 -106.6881 247° West 432 497 37,800 984 Climbing Denver Center
Sat 10:49:19 PM 39.2028 -106.8211 244° Southwest 430 495 38,000 98 Climbing Denver Center
Sat 10:50:20 PM 39.1514 -106.9522 243° Southwest 428 493 38,000  Level Denver Center
Sat 10:51:21 PM 39.0903 -107.1044 243° Southwest 428 493 38,000  Level Denver Center
Sat 10:52:22 PM 39.0383 -107.2353 243° Southwest 427 491 38,000  Level Denver Center
Sat 10:53:23 PM 38.9869 -107.3636 243° Southwest 423 487 38,000  Level Denver Center
Sat 10:54:23 PM 38.9294 -107.5117 244° Southwest 414 476 38,000  Level Denver Center
Sat 10:55:24 PM 38.8781 -107.6369 242° Southwest 412 474 38,000  Level Denver Center
Sat 10:56:25 PM 38.8281 -107.7619 243° Southwest 412 474 38,000  Level Denver Center
Sat 10:57:26 PM 38.7692 -107.9083 243° Southwest 412 474 38,000  Level Denver Center
Sat 10:58:27 PM 38.7186 -108.0342 243° Southwest 415 478 38,000  Level Denver Center
Sat 10:59:28 PM 38.6669 -108.1592 242° Southwest 414 476 38,000  Level Denver Center
Sat 11:00:28 PM 38.6078 -108.3039 242° Southwest 410 472 38,000  Level Denver Center
Sat 11:01:29 PM 38.5581 -108.4272 243° Southwest 408 470 38,000  Level Denver Center
Sat 11:02:30 PM 38.5058 -108.5519 242° Southwest 412 474 38,000  Level Denver Center
Sat 11:03:31 PM 38.4542 -108.6764 242° Southwest 414 476 38,000  Level Denver Center
Sat 11:04:31 PM 38.3944 -108.8211 242° Southwest 412 474 38,000  Level Denver Center
Sat 11:05:32 PM 38.3428 -108.9458 242° Southwest 414 476 38,000  Level Denver Center
Sat 11:06:33 PM 38.2903 -109.0722 242° Southwest 419 482 38,000  Level Denver Center
Sat 11:07:34 PM 38.2292 -109.2147 241° Southwest 413 475 38,000  Level Denver Center
Sat 11:08:35 PM 38.1769 -109.3361 241° Southwest 411 473 38,000  Level Denver Center
Sat 11:09:35 PM 38.1250 -109.4594 242° Southwest 412 474 38,000  Level Denver Center
Sat 11:10:36 PM 38.0633 -109.6025 241° Southwest 413 475 38,000  Level Denver Center
Sat 11:11:37 PM 38.0119 -109.7217 241° Southwest 414 476 38,000  Level Denver Center
Sat 11:12:38 PM 37.9511 -109.8647 242° Southwest 414 476 38,000  Level Denver Center
Sat 11:13:38 PM 37.9072 -109.9656 241° Southwest 412 474 38,000  Level Denver Center
Sat 11:14:39 PM 37.8467 -110.1047 241° Southwest 404 465 38,000  Level Denver Center
Sat 11:15:40 PM 37.7867 -110.2422 241° Southwest 400 460 38,000  Level Denver Center
Sat 11:16:41 PM 37.7353 -110.3583 241° Southwest 397 457 38,000  Level Denver Center
Sat 11:17:41 PM 37.6831 -110.4775 241° Southwest 403 464 38,000  Level Denver Center
Sat 11:18:42 PM 37.6264 -110.6067 241° Southwest 406 467 38,000  Level Denver Center
Sat 11:19:43 PM 37.5717 -110.7303 241° Southwest 404 465 38,000 246 Level Denver Center
Sat 11:20:44 PM 37.5175 -110.8539 241° Southwest 402 463 38,500 992 Climbing Denver Center
Sat 11:21:44 PM 37.4642 -110.9739 241° Southwest 394 453 40,000 744 Climbing Denver Center
Sat 11:22:45 PM 37.4108 -111.0919 240° Southwest 389 448 40,000  Level Denver Center
Sat 11:23:46 PM 37.3564 -111.2106 240° Southwest 390 449 40,000  Level Denver Center
Sat 11:24:46 PM 37.3022 -111.3297 240° Southwest 394 453 40,000  Level Denver Center
Sat 11:25:47 PM 37.2483 -111.4489 240° Southwest 395 455 40,000  Level Denver Center
Sat 11:26:48 PM 37.1953 -111.5681 241° Southwest 391 450 40,000  Level Denver Center
Sat 11:27:49 PM 37.1419 -111.6867 241° Southwest 392 451 40,000  Level Denver Center
Sat 11:28:49 PM 37.0878 -111.8072 241° Southwest 393 452 40,000  Level Denver Center
Sat 11:29:50 PM 37.0203 -111.9508 240° Southwest 397 457 40,000  Level Denver Center
Sat 11:30:51 PM 36.9644 -112.0722 240° Southwest 400 460 40,000  Level Denver Center
Sat 11:31:51 PM 36.9086 -112.1906 239° Southwest 397 457 40,000  Level Denver Center
Sat 11:32:52 PM 36.8531 -112.3108 240° Southwest 397 457 40,000  Level Denver Center
Sat 11:34:13 PM 36.7867 -112.4517 240° Southwest 394 453 40,000  Level Los Angeles Center
Sat 11:35:14 PM 36.7311 -112.5697 240° Southwest 394 453 40,000  Level Los Angeles Center
Sat 11:36:15 PM 36.6644 -112.7119 240° Southwest 394 453 40,000  Level Los Angeles Center
Sat 11:37:17 PM 36.6092 -112.8294 240° Southwest 393 452 40,000  Level Los Angeles Center
Sat 11:38:18 PM 36.5522 -112.9467 239° Southwest 394 453 40,000  Level Los Angeles Center
Sat 11:39:19 PM 36.4975 -113.0642 240° Southwest 393 452 40,000  Level Los Angeles Center
Sat 11:40:20 PM 36.4417 -113.1794 239° Southwest 391 450 40,000  Level Los Angeles Center
Sat 11:41:22 PM 36.3886 -113.2786 236° Southwest 386 444 40,000  Level Los Angeles Center
Sat 11:42:23 PM 36.3189 -113.4119 237° Southwest 383 441 40,000  Level Los Angeles Center
Sat 11:43:24 PM 36.2600 -113.5219 236° Southwest 383 441 40,000  Level Los Angeles Center
Sat 11:44:25 PM 36.2008 -113.6336 237° Southwest 387 445 40,000  Level Los Angeles Center
Sat 11:45:26 PM 36.1419 -113.7456 237° Southwest 389 448 40,000  Level Los Angeles Center
Sat 11:46:27 PM 36.0828 -113.8569 237° Southwest 387 445 40,000  Level Los Angeles Center
Sat 11:47:28 PM 36.0231 -113.9706 237° Southwest 393 452 40,000  Level Los Angeles Center
Sat 11:48:29 PM 35.9625 -114.0803 236° Southwest 389 448 40,000  Level Los Angeles Center
Sat 11:49:31 PM 35.9019 -114.1936 237° Southwest 392 451 40,000  Level Los Angeles Center
Sat 11:50:32 PM 35.8417 -114.3044 236° Southwest 391 450 40,000  Level Los Angeles Center
Sat 11:51:33 PM 35.7822 -114.4172 237° Southwest 391 450 40,000  Level Los Angeles Center
Sat 11:52:34 PM 35.7217 -114.5275 236° Southwest 390 449 40,000  Level Los Angeles Center
Sat 11:53:35 PM 35.6619 -114.6392 237° Southwest 389 448 40,000  Level Los Angeles Center
Sat 11:54:36 PM 35.6019 -114.7475 236° Southwest 385 443 40,000  Level Los Angeles Center
Sat 11:55:37 PM 35.5297 -114.8794 236° Southwest 388 447 40,000  Level Los Angeles Center
Sat 11:56:38 PM 35.4706 -114.9906 237° Southwest 386 444 40,000  Level Los Angeles Center
Sat 11:57:39 PM 35.4092 -115.1014 236° Southwest 390 449 40,000  Level Los Angeles Center
Sat 11:58:40 PM 35.3475 -115.2117 236° Southwest 391 450 40,000  Level Los Angeles Center
Sat 11:59:42 PM 35.2864 -115.3211 236° Southwest 389 448 40,000  Level Los Angeles Center
Sun 12:00:43 AM 35.2242 -115.4322 236° Southwest 393 452 40,000  Level Los Angeles Center
Sun 12:01:44 AM 35.1625 -115.5458 236° Southwest 392 451 40,000  Level Los Angeles Center
Sun 12:02:45 AM 35.0992 -115.6564 235° Southwest 396 456 40,000  Level Los Angeles Center
Sun 12:03:46 AM 35.0364 -115.7678 235° Southwest 399 459 40,000 -148 Level Los Angeles Center
Sun 12:04:47 AM 34.9756 -115.8786 236° Southwest 394 453 39,700 -1,279 Descending Los Angeles Center
Sun 12:05:48 AM 34.9142 -115.9850 235° Southwest 387 445 37,400 -2,508 Descending Los Angeles Center
Sun 12:06:49 AM 34.8542 -116.0897 235° Southwest 380 437 34,600 -2,902 Descending Los Angeles Center
Sun 12:07:50 AM 34.7925 -116.1986 235° Southwest 384 442 31,500 -3,000 Descending Los Angeles Center
Sun 12:08:51 AM 34.7258 -116.3139 235° Southwest 403 464 28,500 -2,754 Descending Los Angeles Center
Sun 12:09:52 AM 34.6614 -116.4297 236° Southwest 413 475 25,900 -2,508 Descending Los Angeles Center
Sun 12:10:53 AM 34.5972 -116.5389 234° Southwest 400 460 23,400 -2,430 Descending Los Angeles Center
Sun 12:11:53 AM 34.5353 -116.6442 234° Southwest 387 445 21,000 -2,380 Descending Los Angeles Center
Sun 12:12:54 AM 34.4772 -116.7467 236° Southwest 373 429 18,600 -2,459 Descending Los Angeles Center
Sun 12:13:55 AM 34.4172 -116.8500 235° Southwest 372 428 16,000 -2,705 Descending Los Angeles Center
Sun 12:14:56 AM 34.3461 -116.9714 235° Southwest 369 425 13,100 -1,820 Descending Los Angeles Center
Sun 12:15:57 AM 34.2881 -117.0714 235° Southwest 364 419 12,300 -639 Descending Los Angeles Center
Sun 12:16:58 AM 34.2328 -117.1464 228° Southwest 305 351 11,800 -1,180 Descending Los Angeles Center
Sun 12:17:59 AM 34.1597 -117.1708 195° South 273 314 9,900 -1,615 Descending Los Angeles Center
Sun 12:19:08 AM 34.0667 -117.1833 186° South 257 296 8,300 -1,313 Descending Southern California TRACON
Sun 12:20:07 AM 34.0333 -117.2333 231° Southwest 209 241 7,100 -1,261 Descending Southern California TRACON
Sun 12:21:07 AM 34.0500 -117.3000 287° West 204 235 5,800 -1,300 Descending Southern California TRACON
Sun 12:22:07 AM 34.0500 -117.3667 270° West 187 215 4,500 -1,158 Descending Southern California TRACON
Sun 12:23:01 AM 34.0500 -117.4167 270° West 190 219 3,600 -1,000 Descending Southern California TRACON
Sun 12:24:07 AM 34.0500 -117.4833 270° West 182 209 2,500 -905 Descending Southern California TRACON
Sun 12:25:07 AM 34.0500 -117.5333 270° West 142 163 1,700 -700 Descending Southern California TRACON
Sun 12:26:07 AM 34.0500 -117.5833 270° West 138 159 1,100 -600 Descending Southern California TRACON
Sun 12:28:00 AM 34.0500 -117.6000 270° West  Level FlightAware Approximate
Sun 12:35:00 AM 34.0560 -117.6012 270° West  Level Estimated

Login

Don't have an account? Register now (free) for customized features, flight alerts, and more!